createdAt,value
2023-02-08T00:03:34.410Z,-1.33
2023-02-08T00:08:26.194Z,-3.88
2023-02-08T00:13:19.421Z,-2.05
2023-02-08T00:18:11.320Z,-0.72
2023-02-08T00:23:03.044Z,-0.71
2023-02-08T00:27:54.702Z,-3.90
2023-02-08T00:32:46.281Z,-2.57
2023-02-08T00:37:37.955Z,-2.77
2023-02-08T00:42:30.187Z,-1.07
2023-02-08T00:47:21.983Z,-3.18
2023-02-08T00:52:13.605Z,-0.64
2023-02-08T00:57:05.249Z,-1.41
2023-02-08T01:01:56.996Z,-1.02
2023-02-08T01:06:48.642Z,-1.46
2023-02-08T01:11:40.261Z,-0.73
2023-02-08T01:16:34.095Z,-0.84
2023-02-08T01:21:28.834Z,-1.00
2023-02-08T01:26:22.475Z,-1.74
2023-02-08T01:31:20.006Z,-1.06
2023-02-08T01:36:12.281Z,-3.17
2023-02-08T01:41:11.214Z,-1.69
2023-02-08T01:46:02.858Z,-1.13
2023-02-08T01:50:59.813Z,-1.21
2023-02-08T01:55:57.647Z,-3.36
2023-02-08T02:00:49.298Z,-2.01
2023-02-08T02:05:48.706Z,-1.59
2023-02-08T02:10:42.531Z,-4.68
2023-02-08T02:15:35.289Z,-1.78
2023-02-08T02:20:53.380Z,-2.58
2023-02-08T02:26:03.815Z,-1.22
2023-02-08T02:31:08.849Z,-1.23
2023-02-08T02:36:07.391Z,-1.43
2023-02-08T02:41:37.648Z,-1.45
2023-02-08T02:46:43.750Z,-1.60
2023-02-08T02:51:38.286Z,-1.73
2023-02-08T02:56:43.063Z,-2.11
2023-02-08T03:01:35.145Z,-2.68
2023-02-08T03:06:36.474Z,-1.77
2023-02-08T03:11:39.861Z,-2.86
2023-02-08T03:17:16.558Z,-1.85
2023-02-08T03:22:23.679Z,-1.87
2023-02-08T03:27:27.487Z,-1.89
2023-02-08T03:32:25.775Z,-1.89
2023-02-08T03:37:25.844Z,-2.08
2023-02-08T03:42:24.710Z,-2.63
2023-02-08T03:47:22.145Z,-3.57
2023-02-08T03:52:14.444Z,-3.27
2023-02-08T03:57:15.751Z,-2.67
2023-02-08T04:02:12.394Z,-2.46
2023-02-08T04:07:04.904Z,-2.80
2023-02-08T04:11:56.611Z,-2.88
2023-02-08T04:16:48.223Z,-2.63
2023-02-08T04:21:39.871Z,-2.60
2023-02-08T04:26:31.584Z,-2.07
2023-02-08T04:31:23.208Z,-2.78
2023-02-08T04:36:14.976Z,-2.89
2023-02-08T04:41:06.628Z,-2.19
2023-02-08T04:45:58.296Z,-2.65
2023-02-08T04:50:49.861Z,-2.01
2023-02-08T04:55:41.762Z,-2.14
2023-02-08T05:00:33.318Z,-2.76
2023-02-08T05:05:28.046Z,-2.93
2023-02-08T05:10:20.430Z,-1.85
2023-02-08T05:15:12.025Z,-2.54
2023-02-08T05:20:04.672Z,-2.95
2023-02-08T05:24:56.280Z,-3.21
2023-02-08T05:29:47.969Z,-3.05
2023-02-08T05:34:39.699Z,-3.90
2023-02-08T05:39:34.227Z,-5.57
2023-02-08T05:44:25.939Z,-3.87
2023-02-08T05:49:17.564Z,-2.40
2023-02-08T05:54:09.176Z,-4.93
2023-02-08T05:59:01.846Z,-3.51
2023-02-08T06:03:54.171Z,-3.24
2023-02-08T06:08:46.208Z,-4.16
2023-02-08T06:13:39.013Z,-5.65
2023-02-08T06:18:30.647Z,-4.27
2023-02-08T06:23:23.436Z,-2.50
2023-02-08T06:28:15.098Z,-4.90
2023-02-08T06:33:06.720Z,-2.85
2023-02-08T06:37:58.891Z,-3.47
2023-02-08T06:42:50.751Z,-2.54
2023-02-08T06:47:42.647Z,-2.53
2023-02-08T06:52:34.315Z,-2.52
2023-02-08T06:57:26.006Z,-2.68
2023-02-08T07:02:20.447Z,-5.15
2023-02-08T07:07:13.406Z,-5.74
2023-02-08T07:12:05.421Z,-2.25
2023-02-08T07:16:57.162Z,-2.16
2023-02-08T07:21:48.760Z,-2.11
2023-02-08T07:26:40.437Z,-4.53
2023-02-08T07:31:32.171Z,-2.33
2023-02-08T07:36:23.841Z,-5.31
2023-02-08T07:41:15.729Z,-3.11
2023-02-08T07:46:17.173Z,-3.00
2023-02-08T07:51:10.154Z,-1.59
2023-02-08T07:56:01.897Z,-3.56
2023-02-08T08:00:53.480Z,1.22
2023-02-08T08:05:45.270Z,2.57
2023-02-08T08:10:37.159Z,2.91
2023-02-08T08:15:29.590Z,4.03
2023-02-08T08:20:21.454Z,2.52
2023-02-08T08:25:13.845Z,5.17
2023-02-08T08:30:14.275Z,4.67
2023-02-08T08:35:07.363Z,5.38
2023-02-08T08:39:58.955Z,3.99
2023-02-08T08:44:50.633Z,2.03
2023-02-08T08:49:43.792Z,5.24
2023-02-08T08:54:35.765Z,4.07
2023-02-08T08:59:27.853Z,4.45
2023-02-08T09:04:22.643Z,4.07
2023-02-08T09:09:14.421Z,3.77
2023-02-08T09:14:06.448Z,4.95
2023-02-08T09:19:02.100Z,5.04
2023-02-08T09:23:53.814Z,5.59
2023-02-08T09:28:45.943Z,2.69
2023-02-08T09:33:37.524Z,3.87
2023-02-08T09:38:29.349Z,5.27
2023-02-08T09:43:45.340Z,4.67
2023-02-08T09:48:40.347Z,3.87
2023-02-08T09:53:47.551Z,1.71
2023-02-08T09:59:00.832Z,1.35
2023-02-08T10:03:58.053Z,4.47
2023-02-08T10:08:52.414Z,4.22
2023-02-08T10:14:13.741Z,4.18
2023-02-08T10:19:32.538Z,3.35
2023-02-08T10:24:45.548Z,2.10
2023-02-08T10:29:54.620Z,3.48
2023-02-08T10:34:51.581Z,3.87
2023-02-08T10:39:43.410Z,2.99
2023-02-08T10:44:58.135Z,3.84
2023-02-08T10:49:58.060Z,3.96
2023-02-08T10:54:49.791Z,3.77
2023-02-08T11:00:22.415Z,3.78
2023-02-08T11:05:18.021Z,4.21
2023-02-08T11:10:19.087Z,4.43
2023-02-08T11:15:23.448Z,3.45
2023-02-08T11:20:28.804Z,3.82
2023-02-08T11:25:53.532Z,4.57
2023-02-08T11:30:56.069Z,4.89
2023-02-08T11:35:55.695Z,4.48
2023-02-08T11:40:47.320Z,4.72
2023-02-08T11:45:39.212Z,4.37
2023-02-08T11:50:34.026Z,5.05
2023-02-08T11:55:28.333Z,4.64
2023-02-08T12:00:26.305Z,5.34
2023-02-08T12:05:22.718Z,5.64
2023-02-08T12:10:39.564Z,5.73
2023-02-08T12:15:58.537Z,5.80
2023-02-08T12:21:25.392Z,6.21
2023-02-08T12:26:25.653Z,6.18
2023-02-08T12:31:28.120Z,6.39
2023-02-08T12:36:32.626Z,6.46
2023-02-08T12:41:46.490Z,6.33
2023-02-08T12:46:43.998Z,6.33
2023-02-08T12:51:41.571Z,6.50
2023-02-08T12:56:38.289Z,5.19
2023-02-08T13:01:40.927Z,5.58
2023-02-08T13:06:49.714Z,6.73
2023-02-08T13:11:57.867Z,6.99
2023-02-08T13:16:55.002Z,6.69
2023-02-08T13:21:46.856Z,5.64
2023-02-08T13:26:40.244Z,5.85
2023-02-08T13:31:41.736Z,5.45
2023-02-08T13:36:36.579Z,5.02
2023-02-08T13:41:29.920Z,3.77
2023-02-08T13:46:24.579Z,5.40
2023-02-08T13:51:31.612Z,6.87
2023-02-08T13:56:49.159Z,6.83
2023-02-08T14:02:13.057Z,6.65
2023-02-08T14:07:16.305Z,5.77
2023-02-08T14:12:19.027Z,5.78
2023-02-08T14:17:19.354Z,5.75
2023-02-08T14:22:10.801Z,6.89
2023-02-08T14:27:28.404Z,6.91
2023-02-08T14:32:25.064Z,6.07
2023-02-08T14:37:21.571Z,6.98
2023-02-08T14:42:14.250Z,5.34
2023-02-08T14:47:36.933Z,6.60
2023-02-08T14:52:29.948Z,5.73
2023-02-08T14:57:28.927Z,6.65
2023-02-08T15:02:23.381Z,5.70
2023-02-08T15:07:47.771Z,6.55
2023-02-08T15:12:40.698Z,6.46
2023-02-08T15:17:44.332Z,6.45
2023-02-08T15:22:38.428Z,6.08
2023-02-08T15:27:34.512Z,5.12
2023-02-08T15:32:28.540Z,4.66
2023-02-08T15:37:20.589Z,5.91
2023-02-08T15:42:18.031Z,5.98
2023-02-08T15:47:17.362Z,3.21
2023-02-08T15:52:16.870Z,5.03
2023-02-08T15:57:33.398Z,3.76
2023-02-08T16:02:31.032Z,5.52
2023-02-08T16:07:31.203Z,4.94
2023-02-08T16:12:24.924Z,5.26
2023-02-08T16:17:41.807Z,4.62
2023-02-08T16:22:33.559Z,4.68
2023-02-08T16:27:28.252Z,4.45
2023-02-08T16:32:22.925Z,3.16
2023-02-08T16:37:27.374Z,3.73
2023-02-08T16:42:33.924Z,4.39
2023-02-08T16:47:28.764Z,3.10
2023-02-08T16:52:20.754Z,1.75
2023-02-08T16:57:12.399Z,3.98
2023-02-08T17:02:09.453Z,2.40
2023-02-08T17:07:01.074Z,3.83
2023-02-08T17:11:52.703Z,0.42
2023-02-08T17:16:44.323Z,3.23
2023-02-08T17:21:36.106Z,2.05
2023-02-08T17:26:32.289Z,2.29
2023-02-08T17:31:24.193Z,1.41
2023-02-08T17:36:17.692Z,1.27
2023-02-08T17:41:18.480Z,2.82
2023-02-08T17:46:11.748Z,3.40
2023-02-08T17:51:08.834Z,0.00
2023-02-08T17:56:00.528Z,3.05
2023-02-08T18:00:52.152Z,2.50
2023-02-08T18:05:43.808Z,-0.19
2023-02-08T18:10:35.440Z,1.59
2023-02-08T18:15:27.259Z,1.32
2023-02-08T18:20:18.987Z,-0.12
2023-02-08T18:25:11.760Z,2.88
2023-02-08T18:30:03.925Z,0.95
2023-02-08T18:34:56.032Z,2.81
2023-02-08T18:39:48.442Z,-0.17
2023-02-08T18:44:40.276Z,2.56
2023-02-08T18:49:32.172Z,2.42
2023-02-08T18:54:23.810Z,-2.10
2023-02-08T18:59:15.402Z,1.06
2023-02-08T19:04:07.183Z,0.97
2023-02-08T19:09:01.659Z,0.53
2023-02-08T19:13:56.355Z,-0.22
2023-02-08T19:18:48.754Z,2.07
2023-02-08T19:23:40.704Z,0.58
2023-02-08T19:28:33.814Z,-0.86
2023-02-08T19:33:25.381Z,0.10
2023-02-08T19:38:18.897Z,-0.30
2023-02-08T19:43:10.572Z,1.39
2023-02-08T19:48:02.152Z,-1.49
2023-02-08T19:52:53.780Z,1.39
2023-02-08T19:57:45.474Z,-1.29
2023-02-08T20:02:38.440Z,-0.99
2023-02-08T20:07:30.079Z,-2.24
2023-02-08T20:12:22.138Z,1.03
2023-02-08T20:17:13.875Z,-0.98
2023-02-08T20:22:05.604Z,-1.63
2023-02-08T20:26:57.563Z,-0.86
2023-02-08T20:31:53.425Z,0.63
2023-02-08T20:36:57.373Z,0.20
2023-02-08T20:41:57.234Z,-1.92
2023-02-08T20:46:48.834Z,0.53
2023-02-08T20:51:40.648Z,-1.99
2023-02-08T20:56:35.483Z,-3.11
2023-02-08T21:01:28.625Z,-1.68
2023-02-08T21:06:26.485Z,-2.03
2023-02-08T21:11:24.987Z,-1.79
2023-02-08T21:16:17.981Z,0.33
2023-02-08T21:21:10.279Z,-0.76
2023-02-08T21:26:03.573Z,0.36
2023-02-08T21:31:00.817Z,-1.24
2023-02-08T21:35:52.928Z,-0.86
2023-02-08T21:40:45.086Z,0.30
2023-02-08T21:45:37.367Z,-2.17
2023-02-08T21:50:47.887Z,-0.68
2023-02-08T21:55:45.264Z,-0.06
2023-02-08T22:00:37.433Z,-2.44
2023-02-08T22:05:29.428Z,0.41
2023-02-08T22:10:26.908Z,0.35
2023-02-08T22:15:21.106Z,-0.52
2023-02-08T22:20:14.853Z,0.47
2023-02-08T22:25:07.409Z,0.33
2023-02-08T22:29:59.374Z,-0.63
2023-02-08T22:34:51.263Z,-0.44
2023-02-08T22:39:43.285Z,-1.34
2023-02-08T22:44:36.338Z,-2.45
2023-02-08T22:49:29.190Z,-1.38
2023-02-08T22:54:21.079Z,-1.73
2023-02-08T22:59:12.879Z,-1.86
2023-02-08T23:04:05.832Z,-0.51
2023-02-08T23:08:58.939Z,0.10
2023-02-08T23:13:50.885Z,-1.18
2023-02-08T23:18:42.789Z,-0.11
2023-02-08T23:23:34.770Z,-2.93
2023-02-08T23:28:26.540Z,-3.09
2023-02-08T23:33:18.366Z,-1.49
2023-02-08T23:38:10.212Z,-0.98
2023-02-08T23:43:01.998Z,-1.09
2023-02-08T23:47:53.798Z,-3.56
2023-02-08T23:52:45.481Z,-0.67
2023-02-08T23:57:37.766Z,-2.31
